createdAt,value
2023-05-18T00:01:24.334Z,99.90
2023-05-18T00:03:54.297Z,99.90
2023-05-18T00:06:22.707Z,99.90
2023-05-18T00:08:49.690Z,99.90
2023-05-18T00:11:17.823Z,99.90
2023-05-18T00:13:45.008Z,99.90
2023-05-18T00:16:16.145Z,99.90
2023-05-18T00:18:45.300Z,99.90
2023-05-18T00:21:12.438Z,99.90
2023-05-18T00:23:39.638Z,99.90
2023-05-18T00:26:06.712Z,99.90
2023-05-18T00:28:33.898Z,99.90
2023-05-18T00:31:01.016Z,99.90
2023-05-18T00:33:28.163Z,99.90
2023-05-18T00:35:57.334Z,99.90
2023-05-18T00:38:24.694Z,99.90
2023-05-18T00:40:51.853Z,99.90
2023-05-18T00:43:19.074Z,99.90
2023-05-18T00:45:46.319Z,99.90
2023-05-18T00:48:13.457Z,99.90
2023-05-18T00:50:40.848Z,99.90
2023-05-18T00:53:10.755Z,99.90
2023-05-18T00:55:39.843Z,99.90
2023-05-18T00:58:07.736Z,99.90
2023-05-18T01:00:37.900Z,99.90
2023-05-18T01:03:05.705Z,99.90
2023-05-18T01:05:32.972Z,99.90
2023-05-18T01:08:00.055Z,99.90
2023-05-18T01:10:28.008Z,99.90
2023-05-18T01:13:01.463Z,99.90
2023-05-18T01:15:37.372Z,99.90
2023-05-18T01:18:31.799Z,99.90
2023-05-18T01:21:11.288Z,99.90
2023-05-18T01:24:06.430Z,99.90
2023-05-18T01:26:41.562Z,99.90
2023-05-18T01:29:12.875Z,99.90
2023-05-18T01:31:40.371Z,99.90
2023-05-18T01:34:09.042Z,99.90
2023-05-18T01:36:36.293Z,99.90
2023-05-18T01:39:03.893Z,99.90
2023-05-18T01:41:34.941Z,99.90
2023-05-18T01:44:29.524Z,99.90
2023-05-18T01:46:59.596Z,99.90
2023-05-18T01:49:42.644Z,99.90
2023-05-18T01:52:14.807Z,99.90
2023-05-18T01:54:45.112Z,99.90
2023-05-18T01:57:12.453Z,99.90
2023-05-18T01:59:39.846Z,99.90
2023-05-18T02:02:07.045Z,99.90
2023-05-18T02:04:35.432Z,99.90
2023-05-18T02:07:03.250Z,99.90
2023-05-18T02:09:30.171Z,99.90
2023-05-18T02:11:57.331Z,99.90
2023-05-18T02:14:24.356Z,99.90
2023-05-18T02:16:53.413Z,99.90
2023-05-18T02:19:21.411Z,99.90
2023-05-18T02:21:49.019Z,99.90
2023-05-18T02:24:17.808Z,99.90
2023-05-18T02:26:44.959Z,99.90
2023-05-18T02:29:12.138Z,99.90
2023-05-18T02:31:39.466Z,99.90
2023-05-18T02:34:06.870Z,99.90
2023-05-18T02:36:40.339Z,99.90
2023-05-18T02:39:13.569Z,99.90
2023-05-18T02:41:40.666Z,99.90
2023-05-18T02:44:08.125Z,99.90
2023-05-18T02:46:35.188Z,99.90
2023-05-18T02:49:02.278Z,99.90
2023-05-18T02:51:30.425Z,99.90
2023-05-18T02:53:57.684Z,99.90
2023-05-18T02:56:24.871Z,99.90
2023-05-18T02:58:57.861Z,99.90
2023-05-18T03:01:29.128Z,99.90
2023-05-18T03:03:58.861Z,99.90
2023-05-18T03:06:27.021Z,99.90
2023-05-18T03:08:56.923Z,99.90
2023-05-18T03:11:24.930Z,99.90
2023-05-18T03:13:52.154Z,99.90
2023-05-18T03:16:19.238Z,99.90
2023-05-18T03:18:46.366Z,99.90
2023-05-18T03:21:16.760Z,99.90
2023-05-18T03:23:43.966Z,99.90
2023-05-18T03:26:12.515Z,99.90
2023-05-18T03:28:39.795Z,99.90
2023-05-18T03:31:06.962Z,99.90
2023-05-18T03:33:34.267Z,99.90
2023-05-18T03:36:04.280Z,99.90
2023-05-18T03:38:31.485Z,99.90
2023-05-18T03:40:58.676Z,99.90
2023-05-18T03:43:26.197Z,99.90
2023-05-18T03:45:53.737Z,99.90
2023-05-18T03:48:21.842Z,99.90
2023-05-18T03:50:49.085Z,99.90
2023-05-18T03:53:19.859Z,99.90
2023-05-18T03:55:51.761Z,99.90
2023-05-18T03:58:21.460Z,99.90
2023-05-18T04:00:49.660Z,99.90
2023-05-18T04:03:17.168Z,99.90
2023-05-18T04:05:44.955Z,99.90
2023-05-18T04:08:14.866Z,99.90
2023-05-18T04:10:43.384Z,99.90
2023-05-18T04:13:11.823Z,99.90
2023-05-18T04:15:39.420Z,99.90
2023-05-18T04:18:06.823Z,99.90
2023-05-18T04:20:34.860Z,99.90
2023-05-18T04:23:01.789Z,99.90
2023-05-18T04:25:29.048Z,99.90
2023-05-18T04:27:57.440Z,99.90
2023-05-18T04:30:26.671Z,99.90
2023-05-18T04:32:54.913Z,99.90
2023-05-18T04:35:22.235Z,99.90
2023-05-18T04:37:49.368Z,99.90
2023-05-18T04:40:17.531Z,99.90
2023-05-18T04:42:48.279Z,99.90
2023-05-18T04:45:17.903Z,99.90
2023-05-18T04:47:53.434Z,99.90
2023-05-18T04:50:23.905Z,99.90
2023-05-18T04:52:52.519Z,99.90
2023-05-18T04:55:29.185Z,99.90
2023-05-18T04:57:57.113Z,99.90
2023-05-18T05:00:28.081Z,99.90
2023-05-18T05:02:57.000Z,99.90
2023-05-18T05:05:25.439Z,99.90
2023-05-18T05:07:54.469Z,99.90
2023-05-18T05:10:22.217Z,99.90
2023-05-18T05:12:51.130Z,99.90
2023-05-18T05:15:19.059Z,99.90
2023-05-18T05:17:50.686Z,99.90
2023-05-18T05:20:17.905Z,99.90
2023-05-18T05:22:45.104Z,99.90
2023-05-18T05:25:12.375Z,99.90
2023-05-18T05:27:39.695Z,99.90
2023-05-18T05:30:07.486Z,99.90
2023-05-18T05:32:37.106Z,99.90
2023-05-18T05:35:04.759Z,99.90
2023-05-18T05:37:31.806Z,99.90
2023-05-18T05:39:59.588Z,99.90
2023-05-18T05:42:26.937Z,99.90
2023-05-18T05:44:53.910Z,99.90
2023-05-18T05:47:21.879Z,99.90
2023-05-18T05:49:49.319Z,99.90
2023-05-18T05:52:16.380Z,99.90
2023-05-18T05:54:44.234Z,99.90
2023-05-18T05:57:13.834Z,99.90
2023-05-18T05:59:45.678Z,99.90
2023-05-18T06:02:12.804Z,99.90
2023-05-18T06:04:40.545Z,99.90
2023-05-18T06:07:07.560Z,99.90
2023-05-18T06:09:35.805Z,99.90
2023-05-18T06:12:02.826Z,99.90
2023-05-18T06:14:29.858Z,99.90
2023-05-18T06:16:57.128Z,99.90
2023-05-18T06:19:24.244Z,99.90
2023-05-18T06:21:51.320Z,99.90
2023-05-18T06:24:19.220Z,99.90
2023-05-18T06:26:46.247Z,99.90
2023-05-18T06:29:13.776Z,99.90
2023-05-18T06:31:41.037Z,99.90
2023-05-18T06:34:08.146Z,99.90
2023-05-18T06:36:35.075Z,99.90
2023-05-18T06:39:02.074Z,99.90
2023-05-18T06:41:29.025Z,99.90
2023-05-18T06:43:56.776Z,99.90
2023-05-18T06:46:24.803Z,99.90
2023-05-18T06:48:52.292Z,99.90
2023-05-18T06:51:19.571Z,99.90
2023-05-18T06:53:46.577Z,99.90
2023-05-18T06:56:13.821Z,99.90
2023-05-18T06:58:43.544Z,99.90
2023-05-18T07:01:11.555Z,99.90
2023-05-18T07:03:38.647Z,99.90
2023-05-18T07:06:06.217Z,99.90
2023-05-18T07:08:33.297Z,99.90
2023-05-18T07:11:02.514Z,99.90
2023-05-18T07:13:29.933Z,99.90
2023-05-18T07:15:57.217Z,99.90
2023-05-18T07:18:24.201Z,99.90
2023-05-18T07:20:51.122Z,99.90
2023-05-18T07:23:18.262Z,99.90
2023-05-18T07:25:45.394Z,99.90
2023-05-18T07:28:12.277Z,99.90
2023-05-18T07:30:39.963Z,99.90
2023-05-18T07:33:07.141Z,99.90
2023-05-18T07:35:34.331Z,99.90
2023-05-18T07:38:01.481Z,99.90
2023-05-18T07:40:29.930Z,99.90
2023-05-18T07:42:57.243Z,99.90
2023-05-18T07:45:24.351Z,99.90
2023-05-18T07:47:51.437Z,99.90
2023-05-18T07:50:19.141Z,99.90
2023-05-18T07:52:46.705Z,99.90
2023-05-18T07:55:14.028Z,99.90
2023-05-18T07:57:40.948Z,99.90
2023-05-18T08:00:09.910Z,99.90
2023-05-18T08:02:37.841Z,99.90
2023-05-18T08:05:05.480Z,99.90
2023-05-18T08:07:34.057Z,99.90
2023-05-18T08:10:01.035Z,99.90
2023-05-18T08:12:29.896Z,99.90
2023-05-18T08:14:57.199Z,99.90
2023-05-18T08:17:24.468Z,99.90
2023-05-18T08:19:54.022Z,99.90
2023-05-18T08:22:22.717Z,99.90
2023-05-18T08:24:52.999Z,99.90
2023-05-18T08:27:21.304Z,99.90
2023-05-18T08:29:49.289Z,99.90
2023-05-18T08:32:18.959Z,99.90
2023-05-18T08:34:46.920Z,99.90
2023-05-18T08:37:14.929Z,99.90
2023-05-18T08:39:42.038Z,99.90
2023-05-18T08:42:42.024Z,99.90
2023-05-18T08:45:22.596Z,99.90
2023-05-18T08:47:51.716Z,99.90
2023-05-18T08:50:28.515Z,99.90
2023-05-18T08:52:59.460Z,99.90
2023-05-18T08:55:28.622Z,99.90
2023-05-18T08:58:00.221Z,99.90
2023-05-18T09:00:28.596Z,99.90
2023-05-18T09:02:56.532Z,99.90
2023-05-18T09:05:24.455Z,99.90
2023-05-18T09:07:52.006Z,99.90
2023-05-18T09:10:19.282Z,99.90
2023-05-18T09:12:48.301Z,99.90
2023-05-18T09:15:18.028Z,99.90
2023-05-18T09:17:45.298Z,99.90
2023-05-18T09:20:15.580Z,99.90
2023-05-18T09:22:46.051Z,99.90
2023-05-18T09:25:16.642Z,99.90
2023-05-18T09:27:44.417Z,99.90
2023-05-18T09:30:13.740Z,99.90
2023-05-18T09:32:40.992Z,99.90
2023-05-18T09:35:09.436Z,99.90
2023-05-18T09:37:36.577Z,99.90
2023-05-18T09:40:06.928Z,99.90
2023-05-18T09:42:38.141Z,99.90
2023-05-18T09:45:15.685Z,99.90
2023-05-18T09:47:42.934Z,99.90
2023-05-18T09:50:10.685Z,99.90
2023-05-18T09:52:45.110Z,99.90
2023-05-18T09:55:15.803Z,99.90
2023-05-18T09:57:48.070Z,99.90
2023-05-18T10:00:17.229Z,99.90
2023-05-18T10:02:49.444Z,99.90
2023-05-18T10:05:23.878Z,99.90
2023-05-18T10:07:51.746Z,99.90
2023-05-18T10:10:23.598Z,99.90
2023-05-18T10:12:52.582Z,99.90
2023-05-18T10:15:22.966Z,99.90
2023-05-18T10:17:51.914Z,99.90
2023-05-18T10:20:25.288Z,99.90
2023-05-18T10:22:54.821Z,99.90
2023-05-18T10:25:25.210Z,99.90
2023-05-18T10:27:57.647Z,99.90
2023-05-18T10:30:26.506Z,99.90
2023-05-18T10:32:57.565Z,99.90
2023-05-18T10:35:29.212Z,99.90
2023-05-18T10:37:59.956Z,99.90
2023-05-18T10:40:30.589Z,99.90
2023-05-18T10:43:00.951Z,99.90
2023-05-18T10:45:28.670Z,99.90
2023-05-18T10:47:59.469Z,99.90
2023-05-18T10:50:27.207Z,99.90
2023-05-18T10:52:55.746Z,99.90
2023-05-18T10:55:23.214Z,99.90
2023-05-18T10:57:56.992Z,99.90
2023-05-18T11:00:28.319Z,99.90
2023-05-18T11:02:56.685Z,99.90
2023-05-18T11:05:25.593Z,99.90
2023-05-18T11:08:05.709Z,99.90
2023-05-18T11:10:41.064Z,99.90
2023-05-18T11:13:14.380Z,99.90
2023-05-18T11:15:54.018Z,99.90
2023-05-18T11:18:34.189Z,99.90
2023-05-18T11:21:01.725Z,99.90
2023-05-18T11:23:32.896Z,99.90
2023-05-18T11:26:10.975Z,99.90
2023-05-18T11:28:43.789Z,99.90
2023-05-18T11:31:18.478Z,99.90
2023-05-18T11:33:45.540Z,99.90
2023-05-18T11:36:14.734Z,99.90
2023-05-18T11:38:53.885Z,99.90
2023-05-18T11:41:44.603Z,99.90
2023-05-18T11:44:21.617Z,99.90
2023-05-18T11:46:58.486Z,99.90
2023-05-18T11:49:30.048Z,98.80
2023-05-18T11:52:19.844Z,97.10
2023-05-18T11:54:49.457Z,97.40
2023-05-18T11:57:18.629Z,96.20
2023-05-18T11:59:55.639Z,96.10
2023-05-18T12:02:25.682Z,97.60
2023-05-18T12:04:54.865Z,96.20
2023-05-18T12:07:22.685Z,94.90
2023-05-18T12:09:49.795Z,97.40
2023-05-18T12:12:20.423Z,94.60
2023-05-18T12:14:59.648Z,92.60
2023-05-18T12:17:49.821Z,95.30
2023-05-18T12:20:19.458Z,95.80
2023-05-18T12:22:53.290Z,96.10
2023-05-18T12:25:23.529Z,95.80
2023-05-18T12:27:52.596Z,94.60
2023-05-18T12:30:35.007Z,94.50
2023-05-18T12:33:04.054Z,92.10
2023-05-18T12:35:32.370Z,95.20
2023-05-18T12:38:00.895Z,94.00
2023-05-18T12:40:37.737Z,92.80
2023-05-18T12:43:04.773Z,93.20
2023-05-18T12:45:33.667Z,92.70
2023-05-18T12:48:08.032Z,93.40
2023-05-18T12:50:37.079Z,93.10
2023-05-18T12:53:04.469Z,92.50
2023-05-18T12:55:34.051Z,92.50
2023-05-18T12:58:16.730Z,91.00
2023-05-18T13:00:45.671Z,91.70
2023-05-18T13:03:16.221Z,91.10
2023-05-18T13:05:45.945Z,91.20
2023-05-18T13:08:21.997Z,89.80
2023-05-18T13:10:57.972Z,91.00
2023-05-18T13:13:32.929Z,89.40
2023-05-18T13:16:00.518Z,88.60
2023-05-18T13:18:28.638Z,90.00
2023-05-18T13:20:57.389Z,91.10
2023-05-18T13:23:29.890Z,90.10
2023-05-18T13:25:58.909Z,86.10
2023-05-18T13:28:27.650Z,87.80
2023-05-18T13:30:54.801Z,85.00
2023-05-18T13:33:25.290Z,84.00
2023-05-18T13:35:52.366Z,86.30
2023-05-18T13:38:19.420Z,85.70
2023-05-18T13:40:47.126Z,85.90
2023-05-18T13:43:14.254Z,85.60
2023-05-18T13:45:41.927Z,86.20
2023-05-18T13:48:11.149Z,87.30
2023-05-18T13:50:39.903Z,88.40
2023-05-18T13:53:07.683Z,87.80
2023-05-18T13:55:35.601Z,85.20
2023-05-18T13:58:03.254Z,87.60
2023-05-18T14:00:33.986Z,87.40
2023-05-18T14:03:01.521Z,87.50
2023-05-18T14:05:29.114Z,84.80
2023-05-18T14:07:56.898Z,85.20
2023-05-18T14:10:23.992Z,84.90
2023-05-18T14:12:51.102Z,86.30
2023-05-18T14:15:18.184Z,86.30
2023-05-18T14:17:45.457Z,84.80
2023-05-18T14:20:13.222Z,87.50
2023-05-18T14:22:40.589Z,87.30
2023-05-18T14:25:08.383Z,86.50
2023-05-18T14:27:35.518Z,86.40
2023-05-18T14:30:02.656Z,84.10
2023-05-18T14:32:29.776Z,85.60
2023-05-18T14:34:58.163Z,82.60
2023-05-18T14:37:25.825Z,82.60
2023-05-18T14:39:53.342Z,84.90
2023-05-18T14:42:20.690Z,84.70
2023-05-18T14:44:47.973Z,84.80
2023-05-18T14:47:16.298Z,83.70
2023-05-18T14:49:43.281Z,84.60
2023-05-18T14:52:10.427Z,86.50
2023-05-18T14:54:38.281Z,83.20
2023-05-18T14:57:05.446Z,83.50
2023-05-18T14:59:33.153Z,85.90
2023-05-18T15:02:03.317Z,83.90
2023-05-18T15:04:31.045Z,82.80
2023-05-18T15:06:58.145Z,84.30
2023-05-18T15:09:27.076Z,84.40
2023-05-18T15:11:54.155Z,85.40
2023-05-18T15:14:21.190Z,85.30
2023-05-18T15:16:48.450Z,86.60
2023-05-18T15:19:16.583Z,86.40
2023-05-18T15:21:45.114Z,84.80
2023-05-18T15:24:12.144Z,86.40
2023-05-18T15:26:39.288Z,85.80
2023-05-18T15:29:06.403Z,85.60
2023-05-18T15:31:34.746Z,87.20
2023-05-18T15:34:01.901Z,86.00
2023-05-18T15:36:31.870Z,84.80
2023-05-18T15:38:59.720Z,86.00
2023-05-18T15:41:33.042Z,84.70
2023-05-18T15:44:02.024Z,85.10
2023-05-18T15:46:32.119Z,86.80
2023-05-18T15:48:59.374Z,85.70
2023-05-18T15:51:26.453Z,86.50
2023-05-18T15:53:53.529Z,85.50
2023-05-18T15:56:22.086Z,85.60
2023-05-18T15:58:49.606Z,85.60
2023-05-18T16:01:17.564Z,84.10
2023-05-18T16:03:45.134Z,85.00
2023-05-18T16:06:13.515Z,84.00
2023-05-18T16:08:40.670Z,84.50
2023-05-18T16:11:08.295Z,85.30
2023-05-18T16:13:36.139Z,86.50
2023-05-18T16:16:03.711Z,86.50
2023-05-18T16:18:39.612Z,87.30
2023-05-18T16:21:06.773Z,88.80
2023-05-18T16:23:34.123Z,88.40
2023-05-18T16:26:05.345Z,87.30
2023-05-18T16:28:32.788Z,84.60
2023-05-18T16:31:00.117Z,88.10
2023-05-18T16:33:28.033Z,89.00
2023-05-18T16:35:56.027Z,89.20
2023-05-18T16:38:23.250Z,89.90
2023-05-18T16:40:50.361Z,90.00
2023-05-18T16:43:17.445Z,89.10
2023-05-18T16:45:44.514Z,90.60
2023-05-18T16:48:11.451Z,89.70
2023-05-18T16:50:38.579Z,90.40
2023-05-18T16:53:05.466Z,90.20
2023-05-18T16:55:32.686Z,90.60
2023-05-18T16:57:59.759Z,91.00
2023-05-18T17:00:27.061Z,91.60
2023-05-18T17:02:54.219Z,91.40
2023-05-18T17:05:24.768Z,92.00
2023-05-18T17:07:52.754Z,91.70
2023-05-18T17:10:20.160Z,91.20
2023-05-18T17:12:47.976Z,92.10
2023-05-18T17:15:16.509Z,92.20
2023-05-18T17:17:44.247Z,92.80
2023-05-18T17:20:12.007Z,93.30
2023-05-18T17:22:39.141Z,93.80
2023-05-18T17:25:06.650Z,95.10
2023-05-18T17:27:33.902Z,94.70
2023-05-18T17:30:01.041Z,94.80
2023-05-18T17:32:28.098Z,94.60
2023-05-18T17:34:54.999Z,94.90
2023-05-18T17:37:22.036Z,95.00
2023-05-18T17:39:49.121Z,95.10
2023-05-18T17:42:17.473Z,95.90
2023-05-18T17:44:47.272Z,96.30
2023-05-18T17:47:14.835Z,97.50
2023-05-18T17:49:41.869Z,97.00
2023-05-18T17:52:12.661Z,97.00
2023-05-18T17:54:40.000Z,98.20
2023-05-18T17:57:07.198Z,97.70
2023-05-18T17:59:37.245Z,98.20
2023-05-18T18:02:06.901Z,99.00
2023-05-18T18:04:34.880Z,98.90
2023-05-18T18:07:02.096Z,99.50
2023-05-18T18:09:29.418Z,99.90
2023-05-18T18:11:58.266Z,99.90
2023-05-18T18:14:25.177Z,99.90
2023-05-18T18:16:52.321Z,99.90
2023-05-18T18:19:19.311Z,99.90
2023-05-18T18:21:46.337Z,99.90
2023-05-18T18:24:14.462Z,99.90
2023-05-18T18:26:41.912Z,99.90
2023-05-18T18:29:09.058Z,99.90
2023-05-18T18:31:36.155Z,99.90
2023-05-18T18:34:03.970Z,99.90
2023-05-18T18:36:31.938Z,99.90
2023-05-18T18:38:59.167Z,99.90
2023-05-18T18:41:26.408Z,99.90
2023-05-18T18:43:54.916Z,99.90
2023-05-18T18:46:21.927Z,99.90
2023-05-18T18:48:48.988Z,99.90
2023-05-18T18:51:16.400Z,99.90
2023-05-18T18:53:43.643Z,99.90
2023-05-18T18:56:10.706Z,99.90
2023-05-18T18:58:41.888Z,99.90
2023-05-18T19:01:09.392Z,99.90
2023-05-18T19:03:36.768Z,99.90
2023-05-18T19:06:03.985Z,99.90
2023-05-18T19:08:31.751Z,99.90
2023-05-18T19:10:59.706Z,99.90
2023-05-18T19:13:26.891Z,99.90
2023-05-18T19:15:54.646Z,99.90
2023-05-18T19:18:22.633Z,99.90
2023-05-18T19:20:49.736Z,99.90
2023-05-18T19:23:17.017Z,99.90
2023-05-18T19:25:44.044Z,99.90
2023-05-18T19:28:11.061Z,99.90
2023-05-18T19:30:38.675Z,99.90
2023-05-18T19:33:06.204Z,99.90
2023-05-18T19:35:33.814Z,99.90
2023-05-18T19:38:02.476Z,99.90
2023-05-18T19:40:29.964Z,99.90
2023-05-18T19:42:59.681Z,99.90
2023-05-18T19:45:26.823Z,99.90
2023-05-18T19:47:54.034Z,99.90
2023-05-18T19:50:21.298Z,99.90
2023-05-18T19:52:49.547Z,99.90
2023-05-18T19:55:17.607Z,99.90
2023-05-18T19:57:44.517Z,99.90
2023-05-18T20:00:18.951Z,99.90
2023-05-18T20:02:46.931Z,99.90
2023-05-18T20:05:18.878Z,99.90
2023-05-18T20:07:46.585Z,99.90
2023-05-18T20:10:19.443Z,99.90
2023-05-18T20:12:48.903Z,99.90
2023-05-18T20:15:16.217Z,99.90
2023-05-18T20:17:43.378Z,99.90
2023-05-18T20:20:10.537Z,99.90
2023-05-18T20:22:39.241Z,99.90
2023-05-18T20:25:07.328Z,99.90
2023-05-18T20:27:34.580Z,99.90
2023-05-18T20:30:01.819Z,99.90
2023-05-18T20:32:29.702Z,99.90
2023-05-18T20:34:56.976Z,99.90
2023-05-18T20:37:26.247Z,99.90
2023-05-18T20:39:54.333Z,99.90
2023-05-18T20:42:22.512Z,99.90
2023-05-18T20:44:51.904Z,99.90
2023-05-18T20:47:20.794Z,99.90
2023-05-18T20:49:48.667Z,99.90
2023-05-18T20:52:15.846Z,99.90
2023-05-18T20:54:44.647Z,99.90
2023-05-18T20:57:11.947Z,99.90
2023-05-18T20:59:39.101Z,99.90
2023-05-18T21:02:07.057Z,99.90
2023-05-18T21:04:34.929Z,99.90
2023-05-18T21:07:02.159Z,99.90
2023-05-18T21:09:31.406Z,99.90
2023-05-18T21:11:58.651Z,99.90
2023-05-18T21:14:25.653Z,99.90
2023-05-18T21:16:53.092Z,99.90
2023-05-18T21:19:20.391Z,99.90
2023-05-18T21:21:48.199Z,99.90
2023-05-18T21:24:16.771Z,99.90
2023-05-18T21:26:43.855Z,99.90
2023-05-18T21:29:11.194Z,99.90
2023-05-18T21:31:38.925Z,99.90
2023-05-18T21:34:06.748Z,99.90
2023-05-18T21:36:34.457Z,99.90
2023-05-18T21:39:02.353Z,99.90
2023-05-18T21:41:29.420Z,99.90
2023-05-18T21:43:57.800Z,99.90
2023-05-18T21:46:25.421Z,99.90
2023-05-18T21:48:52.452Z,99.90
2023-05-18T21:51:19.693Z,99.90
2023-05-18T21:53:46.930Z,99.90
2023-05-18T21:56:14.100Z,99.90
2023-05-18T21:58:43.432Z,99.90
2023-05-18T22:01:10.648Z,99.90
2023-05-18T22:03:38.537Z,99.90
2023-05-18T22:06:05.518Z,99.90
2023-05-18T22:08:32.429Z,99.90
2023-05-18T22:10:59.358Z,99.90
2023-05-18T22:13:26.510Z,99.90
2023-05-18T22:15:53.397Z,99.90
2023-05-18T22:18:21.114Z,99.90
2023-05-18T22:20:48.137Z,99.90
2023-05-18T22:23:15.178Z,99.90
2023-05-18T22:25:42.090Z,99.90
2023-05-18T22:28:08.972Z,99.90
2023-05-18T22:30:36.924Z,99.90
2023-05-18T22:33:04.186Z,99.90
2023-05-18T22:35:31.737Z,99.90
2023-05-18T22:37:58.922Z,99.90
2023-05-18T22:40:26.154Z,99.90
2023-05-18T22:42:55.038Z,99.90
2023-05-18T22:45:22.845Z,99.90
2023-05-18T22:47:50.190Z,99.90
2023-05-18T22:50:17.399Z,99.90
2023-05-18T22:52:46.726Z,99.90
2023-05-18T22:55:14.032Z,99.90
2023-05-18T22:57:42.110Z,99.90
2023-05-18T23:00:10.777Z,99.90
2023-05-18T23:02:41.913Z,99.90
2023-05-18T23:05:09.598Z,99.90
2023-05-18T23:07:37.860Z,99.90
2023-05-18T23:10:06.561Z,99.90
2023-05-18T23:12:33.759Z,99.90
2023-05-18T23:15:04.658Z,99.90
2023-05-18T23:17:32.764Z,99.90
2023-05-18T23:20:07.705Z,99.90
2023-05-18T23:22:35.724Z,99.90
2023-05-18T23:25:04.785Z,99.90
2023-05-18T23:27:32.001Z,99.90
2023-05-18T23:29:59.078Z,99.90
2023-05-18T23:32:26.835Z,99.90
2023-05-18T23:34:56.264Z,99.90
2023-05-18T23:37:24.855Z,99.90
2023-05-18T23:39:52.983Z,99.90
2023-05-18T23:42:20.912Z,99.90
2023-05-18T23:44:48.953Z,99.90
2023-05-18T23:47:16.827Z,99.90
2023-05-18T23:49:45.669Z,99.90
2023-05-18T23:52:13.743Z,99.90
2023-05-18T23:54:41.384Z,99.90
2023-05-18T23:57:08.998Z,99.90
2023-05-18T23:59:37.205Z,99.90
